Time;durP1;ratioP1;P1;durP2;ratioP2;P2;SDS_P1;SDS_P2;PMS_P1;PMS_P2;Temp;Humidity;BMP_temperature;BMP_pressure;BME280_temperature;BME280_humidity;BME280_pressure;Samples;Min_cycle;Max_cycle;Signal;HPM_P1;HPM_P2
2023/06/16 00:01:06;;;;;;;36.63;20.95;;;17.70;96.40;;;;;;5074040;28;20391;-69
2023/06/16 00:03:35;;;;;;;35.67;21.45;;;17.90;96.30;;;;;;5081299;28;20032;-69
2023/06/16 00:06:29;;;;;;;31.45;19.77;;;18.40;99.90;;;;;;5093634;28;20048;-71
2023/06/16 00:08:57;;;;;;;38.22;20.40;;;18.80;99.00;;;;;;5093180;28;20118;-71
2023/06/16 00:11:24;;;;;;;37.50;21.23;;;16.90;99.90;;;;;;5094289;28;20054;-71
2023/06/16 00:13:50;;;;;;;34.45;21.35;;;18.00;99.90;;;;;;5076995;28;20047;-71
2023/06/16 00:16:20;;;;;;;37.20;22.33;;;18.50;99.90;;;;;;5093002;28;20484;-71
2023/06/16 00:18:47;;;;;;;40.65;22.48;;;18.80;99.90;;;;;;5081122;28;20044;-71
2023/06/16 00:21:14;;;;;;;35.42;21.88;;;18.40;98.80;;;;;;5073347;28;20041;-71
2023/06/16 00:23:40;;;;;;;40.13;22.73;;;;;;;;;;5089876;28;20521;-71
2023/06/16 00:26:07;;;;;;;42.42;23.15;;;;;;;;;;5093589;28;20047;-71
2023/06/16 00:28:33;;;;;;;40.63;23.35;;;18.10;99.70;;;;;;5092097;28;20120;-71
2023/06/16 00:30:59;;;;;;;42.83;22.38;;;16.50;99.90;;;;;;5072903;28;20453;-71
2023/06/16 00:33:25;;;;;;;40.97;23.80;;;17.80;99.90;;;;;;5073295;28;20488;-70
2023/06/16 00:35:51;;;;;;;41.17;23.42;;;17.50;99.90;;;;;;5073132;28;20043;-69
2023/06/16 00:38:17;;;;;;;43.03;22.90;;;;;;;;;;5056369;28;20065;-69
2023/06/16 00:40:43;;;;;;;36.90;22.35;;;18.50;99.90;;;;;;5073040;28;20094;-69
2023/06/16 00:43:09;;;;;;;44.78;23.50;;;;;;;;;;5073076;28;20037;-69
2023/06/16 00:45:35;;;;;;;41.42;23.52;;;18.00;99.90;;;;;;5056509;28;20476;-69
2023/06/16 00:48:01;;;;;;;47.40;23.25;;;16.30;99.90;;;;;;5085306;28;20032;-69
2023/06/16 00:50:27;;;;;;;41.60;22.80;;;17.10;99.90;;;;;;5093455;28;20043;-69
2023/06/16 00:52:53;;;;;;;36.65;21.58;;;;;;;;;;5051935;28;20046;-69
2023/06/16 00:55:22;;;;;;;34.58;21.60;;;17.70;99.90;;;;;;5073018;28;20395;-69
2023/06/16 00:57:52;;;;;;;38.95;22.38;;;17.70;97.30;;;;;;5073057;28;20056;-69
2023/06/16 01:00:19;;;;;;;39.50;22.33;;;17.60;99.90;;;;;;5072584;28;20044;-69
2023/06/16 01:02:45;;;;;;;44.17;23.15;;;;;;;;;;5077124;28;20365;-69
2023/06/16 01:05:11;;;;;;;42.33;23.80;;;;;;;;;;5092370;28;20434;-69
2023/06/16 01:07:56;;;;;;;43.63;23.38;;;18.20;99.90;;;;;;5092553;28;20055;-69
2023/06/16 01:10:23;;;;;;;44.60;23.77;;;;;;;;;;5092731;28;20052;-69
2023/06/16 01:13:16;;;;;;;39.08;22.30;;;17.60;99.90;;;;;;5092201;28;20044;-69
2023/06/16 01:15:45;;;;;;;44.30;24.17;;;17.80;99.90;;;;;;5092559;28;20070;-69
2023/06/16 01:18:14;;;;;;;44.10;23.80;;;16.90;98.80;;;;;;5075291;28;20565;-69
2023/06/16 01:20:59;;;;;;;48.45;25.42;;;17.10;98.00;;;;;;5083091;28;20070;-69
2023/06/16 01:23:53;;;;;;;40.83;25.58;;;16.10;99.90;;;;;;5072232;28;20505;-69
2023/06/16 01:26:22;;;;;;;46.95;26.08;;;17.90;99.90;;;;;;5073569;28;20415;-69
2023/06/16 01:28:49;;;;;;;46.45;26.40;;;16.70;98.70;;;;;;5071474;28;20481;-69
2023/06/16 01:31:17;;;;;;;41.45;24.83;;;17.10;99.40;;;;;;5073682;28;20506;-69
2023/06/16 01:33:45;;;;;;;46.72;25.67;;;16.80;99.40;;;;;;5055562;28;20480;-69
2023/06/16 01:36:12;;;;;;;48.35;26.92;;;;;;;;;;5072029;28;20465;-71
2023/06/16 01:38:39;;;;;;;48.92;25.35;;;15.90;99.90;;;;;;5091470;28;20052;-70
2023/06/16 01:41:06;;;;;;;39.78;23.42;;;17.90;99.90;;;;;;5091984;28;20067;-70
2023/06/16 01:43:34;;;;;;;53.72;25.10;;;16.80;99.40;;;;;;5074575;28;20056;-71
2023/06/16 01:46:00;;;;;;;47.97;24.80;;;;;;;;;;5071937;28;20047;-71
2023/06/16 01:48:26;;;;;;;50.65;26.95;;;;;;;;;;5071753;28;20062;-71
2023/06/16 01:50:52;;;;;;;45.13;24.73;;;16.10;99.90;;;;;;5071841;28;20507;-70
2023/06/16 01:53:18;;;;;;;48.50;25.27;;;;;;;;;;5073935;28;20039;-71
2023/06/16 01:55:48;;;;;;;40.67;23.52;;;15.90;99.60;;;;;;5092057;28;20044;-71
2023/06/16 01:58:16;;;;;;;45.47;25.02;;;17.80;99.90;;;;;;5091399;28;20039;-71
2023/06/16 02:00:57;;;;;;;43.95;24.17;;;16.90;99.50;;;;;;5092074;28;20046;-71
2023/06/16 02:03:35;;;;;;;47.30;25.73;;;15.80;99.90;;;;;;5091769;28;20044;-71
2023/06/16 02:06:07;;;;;;;47.13;25.90;;;16.90;99.50;;;;;;5091834;28;20059;-71
2023/06/16 02:08:34;;;;;;;51.00;27.33;;;16.70;99.50;;;;;;5089747;28;20399;-71
2023/06/16 02:11:01;;;;;;;53.33;27.65;;;16.50;98.90;;;;;;5071704;28;20045;-71
2023/06/16 02:13:27;;;;;;;60.60;27.08;;;;;;;;;;5071575;28;20052;-71
2023/06/16 02:15:53;;;;;;;56.42;27.63;;;16.00;99.90;;;;;;5055213;28;20048;-71
2023/06/16 02:18:24;;;;;;;57.10;27.73;;;16.10;99.90;;;;;;5055129;28;20037;-70
2023/06/16 02:20:50;;;;;;;58.67;28.52;;;;;;;;;;5071631;28;20036;-70
2023/06/16 02:23:16;;;;;;;56.90;27.50;;;;;;;;;;5054730;28;20052;-70
2023/06/16 02:25:42;;;;;;;46.25;24.48;;;;;;;;;;5071599;28;20040;-70
2023/06/16 02:28:08;;;;;;;46.00;23.73;;;;;;;;;;5071541;28;20507;-70
2023/06/16 02:30:34;;;;;;;44.08;23.25;;;16.60;99.90;;;;;;5087847;28;20067;-70
2023/06/16 02:33:00;;;;;;;44.83;25.00;;;16.60;99.90;;;;;;5077780;28;20072;-71
2023/06/16 02:35:26;;;;;;;50.20;26.27;;;16.50;99.90;;;;;;5055288;28;20045;-70
2023/06/16 02:37:53;;;;;;;50.28;24.38;;;17.30;99.90;;;;;;5071369;28;20102;-71
2023/06/16 02:40:20;;;;;;;44.22;24.80;;;;;;;;;;5073784;28;20561;-71
2023/06/16 02:42:47;;;;;;;46.00;25.23;;;16.70;99.90;;;;;;5075184;28;20139;-71
2023/06/16 02:45:13;;;;;;;47.35;25.45;;;16.70;99.90;;;;;;5082561;28;20072;-71
2023/06/16 02:47:40;;;;;;;50.90;27.40;;;;;;;;;;5075272;28;20443;-71
2023/06/16 02:50:07;;;;;;;50.78;26.38;;;17.50;99.90;;;;;;5085788;28;20396;-71
2023/06/16 02:52:34;;;;;;;44.97;25.83;;;;;;;;;;5060336;28;20039;-70
2023/06/16 02:55:00;;;;;;;48.17;25.77;;;;;;;;;;5086922;28;20120;-70
2023/06/16 02:57:26;;;;;;;48.05;25.10;;;;;;;;;;5095498;28;20044;-70
2023/06/16 02:59:55;;;;;;;43.63;25.60;;;;;;;;;;5095107;28;20039;-71
2023/06/16 03:02:21;;;;;;;40.08;23.45;;;17.30;99.90;;;;;;5077901;28;20430;-70
2023/06/16 03:04:47;;;;;;;41.55;22.90;;;16.60;99.90;;;;;;5095026;28;20036;-71
2023/06/16 03:07:14;;;;;;;36.47;22.35;;;;;;;;;;5095127;28;20086;-71
2023/06/16 03:09:40;;;;;;;41.10;22.45;;;16.70;99.90;;;;;;5088990;28;20051;-70
2023/06/16 03:12:07;;;;;;;37.65;22.20;;;16.60;99.90;;;;;;5089704;28;20039;-71
2023/06/16 03:14:32;;;;;;;41.33;23.27;;;17.40;99.90;;;;;;5084123;28;20035;-71
2023/06/16 03:17:00;;;;;;;35.50;20.77;;;15.10;99.90;;;;;;5052704;28;20055;-71
2023/06/16 03:19:26;;;;;;;43.03;23.30;;;17.30;99.90;;;;;;5095360;28;20102;-71
2023/06/16 03:21:52;;;;;;;45.80;22.55;;;;;;;;;;5060135;28;20477;-71
2023/06/16 03:24:18;;;;;;;41.67;24.48;;;;;;;;;;5065379;28;20040;-71
2023/06/16 03:26:46;;;;;;;43.00;23.42;;;17.40;99.90;;;;;;5078233;28;20101;-71
2023/06/16 03:29:12;;;;;;;42.05;23.77;;;17.20;99.90;;;;;;5094952;28;20127;-71
2023/06/16 03:31:39;;;;;;;39.17;23.33;;;17.20;99.90;;;;;;5094703;28;20433;-71
2023/06/16 03:34:05;;;;;;;41.08;25.42;;;;;;;;;;5076168;28;20568;-71
2023/06/16 03:36:39;;;;;;;39.80;23.70;;;15.40;99.90;;;;;;5056603;28;20484;-71
2023/06/16 03:39:05;;;;;;;42.75;25.30;;;;;;;;;;5072803;28;20105;-71
2023/06/16 03:41:33;;;;;;;40.08;24.67;;;16.20;99.90;;;;;;5073156;28;20060;-71
2023/06/16 03:43:59;;;;;;;43.58;27.25;;;;;;;;;;5056544;28;20093;-71
2023/06/16 03:46:26;;;;;;;43.53;25.08;;;;;;;;;;5073875;28;20163;-72
2023/06/16 03:48:52;;;;;;;44.95;27.95;;;;;;;;;;5074403;28;20068;-72
2023/06/16 03:51:18;;;;;;;40.08;24.80;;;;;;;;;;5056449;28;20040;-71
2023/06/16 03:53:44;;;;;;;43.58;26.45;;;;;;;;;;5073612;28;20044;-71
2023/06/16 03:56:10;;;;;;;41.25;26.88;;;;;;;;;;5056607;28;20113;-71
2023/06/16 03:58:36;;;;;;;39.40;25.98;;;;;;;;;;5074129;28;20517;-71
2023/06/16 04:01:03;;;;;;;35.17;22.55;;;;;;;;;;5073721;28;20530;-72
2023/06/16 04:03:29;;;;;;;40.15;23.48;;;;;;;;;;5080127;28;20154;-72
2023/06/16 04:05:55;;;;;;;36.05;24.65;;;;;;;;;;5077149;28;20055;-72
2023/06/16 04:08:21;;;;;;;39.53;25.65;;;;;;;;;;5094283;28;20050;-72
2023/06/16 04:10:48;;;;;;;36.28;24.80;;;;;;;;;;5077089;28;20044;-72
2023/06/16 04:13:14;;;;;;;37.88;24.95;;;;;;;;;;5093919;28;20123;-72
2023/06/16 04:15:40;;;;;;;36.08;23.25;;;;;;;;;;5094113;28;20055;-72
2023/06/16 04:18:06;;;;;;;35.78;24.23;;;;;;;;;;5076974;28;20040;-72
2023/06/16 04:20:32;;;;;;;34.50;23.85;;;;;;;;;;5093675;28;20576;-72
2023/06/16 04:22:58;;;;;;;37.85;24.60;;;17.50;99.90;;;;;;5077185;28;20391;-72
2023/06/16 04:25:25;;;;;;;34.55;23.95;;;;;;;;;;5093663;28;20047;-72
2023/06/16 04:27:50;;;;;;;34.63;24.63;;;16.40;99.90;;;;;;5093935;28;20079;-72
2023/06/16 04:30:22;;;;;;;32.55;23.58;;;;;;;;;;5093674;28;20433;-72
2023/06/16 04:32:49;;;;;;;37.45;23.85;;;;;;;;;;5077450;28;20075;-72
2023/06/16 04:35:15;;;;;;;32.85;24.02;;;;;;;;;;5076954;28;20044;-69
2023/06/16 04:37:42;;;;;;;29.77;22.17;;;;;;;;;;5093759;28;20044;-69
2023/06/16 04:40:09;;;;;;;28.65;22.15;;;17.50;99.90;;;;;;5093289;28;20080;-71
2023/06/16 04:42:35;;;;;;;30.80;22.23;;;15.70;99.90;;;;;;5093409;28;20089;-72
2023/06/16 04:45:01;;;;;;;32.75;22.85;;;16.90;99.90;;;;;;5093589;28;20044;-72
2023/06/16 04:47:27;;;;;;;26.60;21.48;;;;;;;;;;5094616;28;20553;-72
2023/06/16 04:49:53;;;;;;;28.65;21.85;;;;;;;;;;5076403;28;20040;-72
2023/06/16 04:52:19;;;;;;;29.85;22.10;;;;;;;;;;5091648;28;20181;-72
2023/06/16 04:54:45;;;;;;;24.00;18.73;;;17.10;99.90;;;;;;5093041;28;20480;-71
2023/06/16 04:57:11;;;;;;;23.17;18.38;;;17.70;99.90;;;;;;5091884;28;20042;-71
2023/06/16 04:59:37;;;;;;;26.90;19.92;;;17.70;99.90;;;;;;5076045;28;20128;-71
2023/06/16 05:02:03;;;;;;;29.38;18.80;;;15.40;99.90;;;;;;5075319;28;20119;-72
2023/06/16 05:04:28;;;;;;;22.15;17.73;;;15.80;99.90;;;;;;5092375;28;20040;-71
2023/06/16 05:06:55;;;;;;;21.13;17.70;;;;;;;;;;5092738;28;20052;-71
2023/06/16 05:09:21;;;;;;;20.88;16.92;;;;;;;;;;5084068;28;20048;-71
2023/06/16 05:11:47;;;;;;;22.05;16.48;;;;;;;;;;5070813;28;20051;-71
2023/06/16 05:14:13;;;;;;;20.30;16.48;;;;;;;;;;5072470;28;20124;-71
2023/06/16 05:16:40;;;;;;;22.80;16.52;;;;;;;;;;5072553;28;20044;-71
2023/06/16 05:19:06;;;;;;;21.38;16.90;;;;;;;;;;5071160;28;20047;-71
2023/06/16 05:21:32;;;;;;;21.48;16.08;;;;;;;;;;5072181;28;20052;-71
2023/06/16 05:23:58;;;;;;;18.38;15.32;;;;;;;;;;5072081;28;20040;-71
2023/06/16 05:26:24;;;;;;;19.50;16.50;;;;;;;;;;5072605;28;20036;-69
2023/06/16 05:28:50;;;;;;;17.92;15.55;;;;;;;;;;5072253;28;20051;-70
2023/06/16 05:31:16;;;;;;;20.70;15.57;;;17.60;99.90;;;;;;5076136;28;20437;-70
2023/06/16 05:33:42;;;;;;;19.60;15.27;;;;;;;;;;5081339;28;20131;-69
2023/06/16 05:36:08;;;;;;;18.83;15.05;;;18.00;99.90;;;;;;5072062;28;20044;-69
2023/06/16 05:38:34;;;;;;;19.48;15.35;;;17.50;99.90;;;;;;5089694;28;20096;-69
2023/06/16 05:41:00;;;;;;;17.75;15.30;;;;;;;;;;5091894;28;20040;-69
2023/06/16 05:43:26;;;;;;;16.92;14.23;;;;;;;;;;5083357;28;20036;-69
2023/06/16 05:45:52;;;;;;;15.70;13.52;;;;;;;;;;5066679;28;20110;-69
2023/06/16 05:48:18;;;;;;;17.52;14.45;;;17.00;99.90;;;;;;5088185;28;20036;-68
2023/06/16 05:50:44;;;;;;;23.10;14.63;;;;;;;;;;5089708;28;20097;-69
2023/06/16 05:53:10;;;;;;;19.02;15.25;;;;;;;;;;5055247;28;20108;-74
2023/06/16 05:55:36;;;;;;;16.25;12.98;;;;;;;;;;5057224;28;20139;-68
2023/06/16 05:58:02;;;;;;;20.00;14.65;;;16.50;99.90;;;;;;5075484;28;20044;-69
2023/06/16 06:00:28;;;;;;;18.58;14.55;;;;;;;;;;5075116;28;20050;-69
2023/06/16 06:02:54;;;;;;;18.27;14.45;;;16.40;99.90;;;;;;5089696;28;20040;-69
2023/06/16 06:05:20;;;;;;;17.42;14.25;;;;;;;;;;5071875;28;20492;-69
2023/06/16 06:07:46;;;;;;;15.52;13.43;;;;;;;;;;5071863;28;20510;-69
2023/06/16 06:10:12;;;;;;;16.65;13.10;;;;;;;;;;5055007;28;20481;-69
2023/06/16 06:12:38;;;;;;;17.70;13.65;;;;;;;;;;5054571;28;20043;-69
2023/06/16 06:15:05;;;;;;;16.20;12.75;;;;;;;;;;5070438;28;20370;-69
2023/06/16 06:17:31;;;;;;;15.10;12.90;;;;;;;;;;5070592;28;20033;-69
2023/06/16 06:19:58;;;;;;;18.70;13.40;;;;;;;;;;5069024;28;20037;-69
2023/06/16 06:22:31;;;;;;;17.50;12.93;;;;;;;;;;5069191;28;20538;-69
2023/06/16 06:24:57;;;;;;;14.98;12.52;;;;;;;;;;5069451;28;20051;-68
2023/06/16 06:27:24;;;;;;;18.23;12.55;;;;;;;;;;5075783;28;20115;-73
2023/06/16 06:29:51;;;;;;;15.75;12.30;;;;;;;;;;5084082;28;20040;-68
2023/06/16 06:32:16;;;;;;;16.55;12.48;;;18.70;99.90;;;;;;5085453;28;20037;-68
2023/06/16 06:34:42;;;;;;;13.77;11.27;;;17.70;99.90;;;;;;5075046;28;20392;-69
2023/06/16 06:37:08;;;;;;;13.68;10.25;;;;;;;;;;5088204;28;20052;-69
2023/06/16 06:39:34;;;;;;;13.13;10.25;;;17.60;99.90;;;;;;5071852;28;20441;-68
2023/06/16 06:42:00;;;;;;;14.05;10.85;;;;;;;;;;5071381;28;20124;-68
2023/06/16 06:44:26;;;;;;;12.57;10.10;;;18.90;99.90;;;;;;5071437;28;20040;-68
2023/06/16 06:46:51;;;;;;;14.13;10.00;;;19.10;99.90;;;;;;5054675;28;20491;-68
2023/06/16 06:49:18;;;;;;;17.65;11.18;;;;;;;;;;5071655;28;20097;-68
2023/06/16 06:51:44;;;;;;;14.50;10.55;;;;;;;;;;5071559;28;20059;-68
2023/06/16 06:54:09;;;;;;;16.15;10.23;;;17.50;99.90;;;;;;5088845;28;20384;-68
2023/06/16 06:56:35;;;;;;;16.85;10.23;;;18.10;99.90;;;;;;5078241;28;20028;-68
2023/06/16 06:59:01;;;;;;;13.70;10.23;;;;;;;;;;5080977;28;20043;-69
2023/06/16 07:01:27;;;;;;;14.52;9.68;;;;;;;;;;5087724;28;20043;-68
2023/06/16 07:03:53;;;;;;;11.63;9.55;;;;;;;;;;5091663;28;20491;-69
2023/06/16 07:06:20;;;;;;;14.75;9.63;;;18.30;99.90;;;;;;5092513;28;20082;-70
2023/06/16 07:08:46;;;;;;;15.50;9.02;;;18.50;99.90;;;;;;5091546;28;20032;-71
2023/06/16 07:11:12;;;;;;;11.95;9.07;;;17.50;99.90;;;;;;5074469;28;20116;-71
2023/06/16 07:13:38;;;;;;;15.13;9.88;;;;;;;;;;5091624;28;20055;-71
2023/06/16 07:16:04;;;;;;;12.75;7.50;;;18.50;99.90;;;;;;5091550;28;20044;-71
2023/06/16 07:18:30;;;;;;;11.82;7.00;;;;;;;;;;5092594;28;20388;-71
2023/06/16 07:20:56;;;;;;;9.95;8.05;;;;;;;;;;5074389;28;20123;-72
2023/06/16 07:23:25;;;;;;;17.00;9.00;;;;;;;;;;5091138;28;20408;-71
2023/06/16 07:25:51;;;;;;;16.33;8.73;;;19.40;99.90;;;;;;5091674;28;20044;-71
2023/06/16 07:28:18;;;;;;;11.75;9.55;;;;;;;;;;5078099;28;20501;-71
2023/06/16 07:30:44;;;;;;;14.73;10.30;;;;;;;;;;5084302;28;20043;-69
2023/06/16 07:33:10;;;;;;;11.52;9.00;;;19.60;99.90;;;;;;5057897;28;20052;-70
2023/06/16 07:35:36;;;;;;;10.68;7.43;;;;;;;;;;5057681;28;20090;-70
2023/06/16 07:38:02;;;;;;;11.82;6.82;;;19.90;99.90;;;;;;5074313;28;20036;-70
2023/06/16 07:40:27;;;;;;;15.20;7.60;;;19.60;99.90;;;;;;5075646;28;20052;-70
2023/06/16 07:42:54;;;;;;;7.50;4.95;;;;;;;;;;5074465;28;20040;-71
2023/06/16 07:45:19;;;;;;;8.98;5.68;;;18.10;98.70;;;;;;5074169;28;20033;-70
2023/06/16 07:47:45;;;;;;;10.05;5.30;;;;;;;;;;5074269;28;20117;-70
2023/06/16 07:50:13;;;;;;;9.70;4.78;;;;;;;;;;5075412;28;20503;-70
2023/06/16 07:52:40;;;;;;;9.65;5.05;;;19.20;98.50;;;;;;5074195;28;20044;-70
2023/06/16 07:55:07;;;;;;;6.57;4.18;;;18.30;98.00;;;;;;5073979;28;20052;-70
2023/06/16 07:57:33;;;;;;;8.73;5.20;;;19.50;94.40;;;;;;5057517;28;20033;-70
2023/06/16 07:59:59;;;;;;;6.82;5.15;;;19.10;94.80;;;;;;5078002;28;20357;-70
2023/06/16 08:02:25;;;;;;;6.97;4.20;;;19.70;96.60;;;;;;5094073;28;20106;-70
2023/06/16 08:04:51;;;;;;;7.70;4.85;;;;;;;;;;5077236;28;20426;-70
2023/06/16 08:07:17;;;;;;;9.35;5.25;;;19.90;97.10;;;;;;5077191;28;20377;-71
2023/06/16 08:09:43;;;;;;;20.23;4.47;;;19.10;96.60;;;;;;5077276;28;20055;-71
2023/06/16 08:12:09;;;;;;;6.70;4.57;;;19.10;92.60;;;;;;5093936;28;20040;-70
2023/06/16 08:14:36;;;;;;;7.07;3.88;;;20.50;94.90;;;;;;5094056;28;20498;-70
2023/06/16 08:17:02;;;;;;;5.57;3.30;;;19.60;92.90;;;;;;5093768;28;20391;-71
2023/06/16 08:19:28;;;;;;;7.15;4.40;;;;;;;;;;5092419;28;20048;-71
2023/06/16 08:21:53;;;;;;;6.60;4.03;;;18.80;93.30;;;;;;5093176;28;20432;-70
2023/06/16 08:24:19;;;;;;;7.93;4.05;;;19.50;93.40;;;;;;5093389;28;20039;-70
2023/06/16 08:26:45;;;;;;;8.23;3.80;;;20.20;93.00;;;;;;5092517;28;20047;-70
2023/06/16 08:29:12;;;;;;;5.70;3.42;;;18.80;89.40;;;;;;5075561;28;20075;-70
2023/06/16 08:31:37;;;;;;;7.47;3.95;;;20.80;92.20;;;;;;5076922;28;20195;-71
2023/06/16 08:34:03;;;;;;;7.68;3.35;;;;;;;;;;5077192;28;20052;-70
2023/06/16 08:36:29;;;;;;;7.95;3.20;;;20.10;91.80;;;;;;5093942;28;20044;-67
2023/06/16 08:38:55;;;;;;;6.38;3.25;;;19.50;91.70;;;;;;5093302;28;20054;-67
2023/06/16 08:41:22;;;;;;;8.27;3.17;;;21.00;92.10;;;;;;5060019;28;20040;-68
2023/06/16 08:43:50;;;;;;;4.70;3.30;;;20.70;88.90;;;;;;5093333;28;20491;-67
2023/06/16 08:46:16;;;;;;;8.02;3.17;;;;;;;;;;5093427;28;20076;-68
2023/06/16 08:48:42;;;;;;;6.60;3.22;;;20.60;82.90;;;;;;5093213;28;20036;-68
2023/06/16 08:51:14;;;;;;;5.78;2.83;;;21.30;85.50;;;;;;5075952;28;20205;-67
2023/06/16 08:53:41;;;;;;;4.85;2.92;;;20.50;82.50;;;;;;5092839;28;20048;-67
2023/06/16 08:56:09;;;;;;;4.85;2.70;;;21.40;90.30;;;;;;5092345;28;20048;-67
2023/06/16 08:58:37;;;;;;;5.10;3.15;;;20.70;82.00;;;;;;5091625;28;20431;-67
2023/06/16 09:01:04;;;;;;;8.95;3.28;;;20.30;89.50;;;;;;5076000;28;20059;-67
2023/06/16 09:03:33;;;;;;;6.13;3.08;;;20.40;80.60;;;;;;5094331;28;20051;-67
2023/06/16 09:06:02;;;;;;;5.53;2.80;;;21.40;82.00;;;;;;5093979;28;20488;-67
2023/06/16 09:08:29;;;;;;;9.20;2.85;;;21.40;87.80;;;;;;5092927;28;20056;-67
2023/06/16 09:10:55;;;;;;;6.82;2.97;;;21.30;87.60;;;;;;5094146;28;20036;-68
2023/06/16 09:13:26;;;;;;;5.95;2.90;;;21.70;86.60;;;;;;5076228;28;20122;-67
2023/06/16 09:15:56;;;;;;;5.60;2.72;;;20.90;86.40;;;;;;5092803;28;20488;-67
2023/06/16 09:18:22;;;;;;;8.05;2.80;;;21.40;86.20;;;;;;5092821;28;20048;-67
2023/06/16 09:20:53;;;;;;;6.10;2.83;;;22.00;77.20;;;;;;5092931;28;20036;-68
2023/06/16 09:23:28;;;;;;;6.47;3.22;;;21.90;85.40;;;;;;5091384;28;20036;-68
2023/06/16 09:25:54;;;;;;;5.30;3.38;;;;;;;;;;5090240;28;20046;-68
2023/06/16 09:28:34;;;;;;;5.20;3.58;;;20.50;82.90;;;;;;5066601;28;20071;-67
2023/06/16 09:31:15;;;;;;;8.05;3.63;;;21.60;73.10;;;;;;5092563;28;20056;-67
2023/06/16 09:33:42;;;;;;;6.57;3.00;;;22.00;83.60;;;;;;5078545;28;20040;-67
2023/06/16 09:36:09;;;;;;;7.35;2.90;;;22.40;82.80;;;;;;5080711;28;20097;-70
2023/06/16 09:38:36;;;;;;;5.90;3.25;;;21.70;73.30;;;;;;5092336;28;20054;-71
2023/06/16 09:41:15;;;;;;;7.60;3.35;;;22.40;81.70;;;;;;5079479;28;20568;-71
2023/06/16 09:43:42;;;;;;;6.07;3.10;;;21.70;81.30;;;;;;5088889;28;20413;-71
2023/06/16 09:46:12;;;;;;;5.47;3.30;;;22.60;81.60;;;;;;5072554;28;20036;-71
2023/06/16 09:48:48;;;;;;;4.88;3.55;;;21.80;80.70;;;;;;5079318;28;20062;-71
2023/06/16 09:51:23;;;;;;;7.78;3.30;;;22.90;79.40;;;;;;5076691;28;20040;-67
2023/06/16 09:53:49;;;;;;;9.15;3.67;;;22.10;71.50;;;;;;5079941;28;20369;-66
2023/06/16 09:56:17;;;;;;;9.73;3.05;;;22.50;72.30;;;;;;5077264;28;20043;-67
2023/06/16 09:58:44;;;;;;;5.20;3.65;;;22.50;72.20;;;;;;5063923;28;20052;-67
2023/06/16 10:01:13;;;;;;;5.30;3.30;;;22.90;80.60;;;;;;5091213;28;20042;-67
2023/06/16 10:03:41;;;;;;;5.40;3.15;;;22.80;80.50;;;;;;5074168;28;20040;-71
2023/06/16 10:06:19;;;;;;;9.98;3.67;;;22.60;80.40;;;;;;5071709;28;20044;-72
2023/06/16 10:08:47;;;;;;;7.15;3.50;;;23.20;80.60;;;;;;5055243;28;20041;-71
2023/06/16 10:11:16;;;;;;;5.20;3.50;;;22.40;79.70;;;;;;5077196;28;20050;-71
2023/06/16 10:14:02;;;;;;;5.00;3.20;;;22.90;74.00;;;;;;5087656;28;20097;-71
2023/06/16 10:16:30;;;;;;;6.35;3.10;;;22.70;71.40;;;;;;5073129;28;20095;-72
2023/06/16 10:18:59;;;;;;;7.03;3.20;;;21.90;79.50;;;;;;5061615;28;20097;-71
2023/06/16 10:21:26;;;;;;;4.85;3.40;;;23.00;79.50;;;;;;5071661;28;20102;-67
2023/06/16 10:23:53;;;;;;;8.02;4.00;;;;;;;;;;5092113;28;20040;-68
2023/06/16 10:26:20;;;;;;;7.43;3.60;;;22.30;78.50;;;;;;5075322;28;20032;-68
2023/06/16 10:28:46;;;;;;;7.10;4.13;;;;;;;;;;5081888;28;20074;-67
2023/06/16 10:31:14;;;;;;;5.05;3.78;;;23.80;71.90;;;;;;5089161;28;20127;-67
2023/06/16 10:33:53;;;;;;;9.40;3.50;;;22.60;78.20;;;;;;5085073;28;20044;-67
2023/06/16 10:36:22;;;;;;;8.38;3.40;;;23.80;78.50;;;;;;5082656;28;20047;-67
2023/06/16 10:38:56;;;;;;;7.00;3.45;;;23.20;78.20;;;;;;5063939;28;20040;-67
2023/06/16 10:41:22;;;;;;;10.15;3.80;;;23.40;69.80;;;;;;5079687;28;20141;-68
2023/06/16 10:43:48;;;;;;;4.80;3.28;;;23.00;77.90;;;;;;5064632;28;20095;-68
2023/06/16 10:46:18;;;;;;;10.27;3.88;;;23.30;78.10;;;;;;5082206;28;20169;-67
2023/06/16 10:48:56;;;;;;;9.43;3.83;;;24.20;78.00;;;;;;5075852;28;20040;-67
2023/06/16 10:51:44;;;;;;;7.72;3.65;;;23.60;67.40;;;;;;5071075;28;20520;-67
2023/06/16 10:54:10;;;;;;;7.85;3.50;;;23.90;78.70;;;;;;5064311;28;20047;-72
2023/06/16 10:57:00;;;;;;;7.88;3.42;;;23.90;77.80;;;;;;5088983;28;20150;-72
2023/06/16 10:59:26;;;;;;;8.73;3.60;;;24.50;71.50;;;;;;5071687;28;20119;-72
2023/06/16 11:01:57;;;;;;;8.00;3.35;;;24.50;77.00;;;;;;5074531;28;20147;-71
2023/06/16 11:04:23;;;;;;;8.35;3.50;;;23.70;70.90;;;;;;5091070;28;20029;-71
2023/06/16 11:07:04;;;;;;;8.65;3.22;;;23.90;75.70;;;;;;5061323;28;20044;-67
2023/06/16 11:09:31;;;;;;;5.10;3.33;;;23.40;73.30;;;;;;5085736;28;20090;-68
2023/06/16 11:11:59;;;;;;;8.23;3.40;;;23.90;75.40;;;;;;5075042;28;20071;-67
2023/06/16 11:14:25;;;;;;;7.15;3.65;;;24.30;66.10;;;;;;5086191;28;20093;-69
2023/06/16 11:16:51;;;;;;;6.18;3.42;;;24.20;66.00;;;;;;5072355;28;20059;-67
2023/06/16 11:19:18;;;;;;;5.32;3.13;;;23.80;70.30;;;;;;5094321;28;20055;-67
2023/06/16 11:21:44;;;;;;;7.72;3.70;;;24.20;73.40;;;;;;5085538;28;20365;-67
2023/06/16 11:24:11;;;;;;;4.78;3.22;;;24.10;73.40;;;;;;5094169;28;20052;-67
2023/06/16 11:26:38;;;;;;;7.22;3.67;;;24.70;73.70;;;;;;5094807;28;20040;-67
2023/06/16 11:29:07;;;;;;;4.65;3.17;;;24.50;73.80;;;;;;5084205;28;20388;-67
2023/06/16 11:31:36;;;;;;;5.20;3.35;;;24.30;67.10;;;;;;5087006;28;20048;-68
2023/06/16 11:34:02;;;;;;;10.57;3.78;;;24.80;67.00;;;;;;5087826;28;20050;-68
2023/06/16 11:36:28;;;;;;;6.32;3.25;;;24.60;73.40;;;;;;5063026;28;20048;-68
2023/06/16 11:38:57;;;;;;;5.15;3.60;;;25.00;73.60;;;;;;5081864;28;20037;-69
2023/06/16 11:41:27;;;;;;;9.52;3.88;;;24.80;73.10;;;;;;5092658;28;20044;-72
2023/06/16 11:43:53;;;;;;;4.80;3.38;;;24.50;63.80;;;;;;5090366;28;20044;-68
2023/06/16 11:46:23;;;;;;;6.85;3.60;;;24.60;72.70;;;;;;5094294;28;20063;-69
2023/06/16 11:48:51;;;;;;;6.97;3.80;;;23.70;70.80;;;;;;5094067;28;20066;-72
2023/06/16 11:51:16;;;;;;;6.32;3.38;;;24.80;72.40;;;;;;5094085;28;20036;-72
2023/06/16 11:53:46;;;;;;;5.93;3.63;;;24.50;71.80;;;;;;5092702;28;20135;-73
2023/06/16 11:56:14;;;;;;;9.70;3.83;;;24.50;62.70;;;;;;5082559;28;20123;-71
2023/06/16 11:58:42;;;;;;;8.68;3.55;;;25.10;71.30;;;;;;5081584;28;20051;-72
2023/06/16 12:01:12;;;;;;;7.10;3.38;;;24.70;71.40;;;;;;5077434;28;20429;-72
2023/06/16 12:03:39;;;;;;;9.13;4.15;;;24.40;63.50;;;;;;5067491;28;20075;-72
2023/06/16 12:06:06;;;;;;;6.60;3.63;;;24.70;62.40;;;;;;5076382;28;20120;-72
2023/06/16 12:08:36;;;;;;;6.40;3.70;;;25.10;71.80;;;;;;5072999;28;20058;-71
2023/06/16 12:11:02;;;;;;;9.30;3.95;;;25.20;68.30;;;;;;5093729;28;20048;-71
2023/06/16 12:13:33;;;;;;;11.85;3.85;;;25.00;71.80;;;;;;5087906;28;20047;-72
2023/06/16 12:15:59;;;;;;;5.97;3.58;;;;;;;;;;5073609;28;20041;-72
2023/06/16 12:18:25;;;;;;;14.88;3.92;;;24.90;63.00;;;;;;5073859;28;20043;-71
2023/06/16 12:20:51;;;;;;;9.95;4.10;;;;;;;;;;5077682;28;20480;-72
2023/06/16 12:23:20;;;;;;;8.15;3.53;;;24.80;59.50;;;;;;5076823;28;20054;-72
2023/06/16 12:25:49;;;;;;;8.43;4.28;;;24.80;63.50;;;;;;5073568;28;20037;-72
2023/06/16 12:28:20;;;;;;;7.70;3.95;;;24.60;59.90;;;;;;5065016;28;20033;-72
2023/06/16 12:30:46;;;;;;;9.38;4.00;;;24.50;71.40;;;;;;5073920;28;20047;-72
2023/06/16 12:33:13;;;;;;;8.93;4.57;;;;;;;;;;5086199;28;20044;-73
2023/06/16 12:35:40;;;;;;;7.20;3.83;;;24.60;62.40;;;;;;5093744;28;20127;-73
2023/06/16 12:38:06;;;;;;;11.15;4.50;;;;;;;;;;5063057;28;20354;-72
2023/06/16 12:40:32;;;;;;;6.03;3.78;;;25.60;70.40;;;;;;5074267;28;20051;-72
2023/06/16 12:43:21;;;;;;;6.55;4.05;;;24.40;70.20;;;;;;5081457;28;20376;-72
2023/06/16 12:45:47;;;;;;;9.30;4.40;;;;;;;;;;5063271;28;20483;-71
2023/06/16 12:48:14;;;;;;;10.55;4.50;;;;;;;;;;5077082;28;20040;-73
2023/06/16 12:50:40;;;;;;;9.35;4.40;;;;;;;;;;5088417;28;20051;-72
2023/06/16 12:53:06;;;;;;;9.98;4.63;;;;;;;;;;5065023;28;20549;-72
2023/06/16 12:55:32;;;;;;;10.02;4.53;;;26.00;70.00;;;;;;5079660;28;20043;-68
2023/06/16 12:57:57;;;;;;;13.38;4.35;;;25.80;66.60;;;;;;5076193;28;20126;-69
2023/06/16 13:00:27;;;;;;;7.90;4.30;;;;;;;;;;5085423;28;20119;-68
2023/06/16 13:02:53;;;;;;;8.98;4.40;;;25.10;64.80;;;;;;5073220;28;20048;-69
2023/06/16 13:05:21;;;;;;;10.38;4.50;;;25.50;70.40;;;;;;5084622;28;20052;-69
2023/06/16 13:07:47;;;;;;;7.13;4.38;;;25.90;70.10;;;;;;5073865;28;20052;-68
2023/06/16 13:10:13;;;;;;;15.57;4.80;;;25.90;69.60;;;;;;5061770;28;20040;-68
2023/06/16 13:12:39;;;;;;;10.82;4.63;;;25.70;69.00;;;;;;5081629;28;20066;-68
2023/06/16 13:15:05;;;;;;;9.75;5.10;;;25.80;68.90;;;;;;5086351;28;20036;-69